createdAt,value
2017-09-01T00:02:11.365Z,1.10
2017-09-01T00:04:38.870Z,1.27
2017-09-01T00:07:06.510Z,1.20
2017-09-01T00:09:34.010Z,1.10
2017-09-01T00:12:01.580Z,1.27
2017-09-01T00:14:29.169Z,1.10
2017-09-01T00:16:56.736Z,1.17
2017-09-01T00:19:24.237Z,1.23
2017-09-01T00:21:51.854Z,1.43
2017-09-01T00:24:19.377Z,1.00
2017-09-01T00:26:46.877Z,1.00
2017-09-01T00:29:14.381Z,1.27
2017-09-01T00:31:41.885Z,1.20
2017-09-01T00:34:09.406Z,1.17
2017-09-01T00:36:36.999Z,1.20
2017-09-01T00:39:04.513Z,1.30
2017-09-01T00:41:32.037Z,0.90
2017-09-01T00:43:59.550Z,1.10
2017-09-01T00:46:27.074Z,1.13
2017-09-01T00:48:54.604Z,1.10
2017-09-01T00:51:22.152Z,1.20
2017-09-01T00:53:49.683Z,1.23
2017-09-01T00:56:17.205Z,1.10
2017-09-01T00:58:44.821Z,1.00
2017-09-01T01:01:12.362Z,1.00
2017-09-01T01:03:40.028Z,0.97
2017-09-01T01:06:07.599Z,1.00
2017-09-01T01:08:35.263Z,1.17
2017-09-01T01:11:02.912Z,1.00
2017-09-01T01:13:30.422Z,1.03
2017-09-01T01:15:57.971Z,1.00
2017-09-01T01:18:25.491Z,1.00
2017-09-01T01:20:53.133Z,1.07
2017-09-01T01:23:20.691Z,1.00
2017-09-01T01:25:48.217Z,1.10
2017-09-01T01:28:15.742Z,1.10
2017-09-01T01:30:43.239Z,0.90
2017-09-01T01:33:10.742Z,1.03
2017-09-01T01:35:38.264Z,0.90
2017-09-01T01:38:05.753Z,1.13
2017-09-01T01:40:33.280Z,1.10
2017-09-01T01:43:00.787Z,1.20
2017-09-01T01:45:28.281Z,0.83
2017-09-01T01:47:55.799Z,0.90
2017-09-01T01:50:23.316Z,1.00
2017-09-01T01:52:50.974Z,1.00
2017-09-01T01:55:18.501Z,1.20
2017-09-01T01:57:46.017Z,0.80
2017-09-01T02:00:13.595Z,1.00
2017-09-01T02:02:41.112Z,1.00
2017-09-01T02:05:08.861Z,1.20
2017-09-01T02:07:36.429Z,1.00
2017-09-01T02:10:04.076Z,1.20
2017-09-01T02:12:31.570Z,1.23
2017-09-01T02:14:59.217Z,1.20
2017-09-01T02:17:26.717Z,1.23
2017-09-01T02:19:54.261Z,1.10
2017-09-01T02:22:21.759Z,0.90
2017-09-01T02:24:49.253Z,0.90
2017-09-01T02:27:16.765Z,0.90
2017-09-01T02:29:44.276Z,1.07
2017-09-01T02:32:11.829Z,0.87
2017-09-01T02:34:39.327Z,0.90
2017-09-01T02:37:06.825Z,1.00
2017-09-01T02:39:34.388Z,1.00
2017-09-01T02:42:02.655Z,0.90
2017-09-01T02:44:30.283Z,0.80
2017-09-01T02:46:57.796Z,1.10
2017-09-01T02:49:25.365Z,1.10
2017-09-01T02:51:52.887Z,0.90
2017-09-01T02:54:20.417Z,1.07
2017-09-01T02:56:47.925Z,0.90
2017-09-01T02:59:15.425Z,0.90
2017-09-01T03:01:42.954Z,1.20
2017-09-01T03:04:10.493Z,0.97
2017-09-01T03:06:38.105Z,0.90
2017-09-01T03:09:05.609Z,1.10
2017-09-01T03:11:33.126Z,0.70
2017-09-01T03:14:00.681Z,0.80
2017-09-01T03:16:28.193Z,1.03
2017-09-01T03:18:55.712Z,1.00
2017-09-01T03:21:23.228Z,1.10
2017-09-01T03:23:50.729Z,0.87
2017-09-01T03:26:18.366Z,1.00
2017-09-01T03:28:45.873Z,1.03
2017-09-01T03:31:13.445Z,0.90
2017-09-01T03:33:41.035Z,1.03
2017-09-01T03:36:08.571Z,1.17
2017-09-01T03:38:36.883Z,1.07
2017-09-01T03:41:04.378Z,0.80
2017-09-01T03:43:31.901Z,0.90
2017-09-01T03:45:59.377Z,0.90
2017-09-01T03:48:26.894Z,0.97
2017-09-01T03:50:54.407Z,0.70
2017-09-01T03:53:21.916Z,0.90
2017-09-01T03:55:49.450Z,0.90
2017-09-01T03:58:16.956Z,0.80
2017-09-01T04:00:44.520Z,1.00
2017-09-01T04:03:12.026Z,0.90
2017-09-01T04:05:39.525Z,1.00
2017-09-01T04:08:07.063Z,0.87
2017-09-01T04:10:34.621Z,0.87
2017-09-01T04:13:02.135Z,0.90
2017-09-01T04:15:29.649Z,0.90
2017-09-01T04:17:57.175Z,0.97
2017-09-01T04:20:24.673Z,0.87
2017-09-01T04:22:52.204Z,1.10
2017-09-01T04:25:19.710Z,1.10
2017-09-01T04:27:47.220Z,0.90
2017-09-01T04:30:14.744Z,1.00
2017-09-01T04:32:42.354Z,0.83
2017-09-01T04:35:09.877Z,0.83
2017-09-01T04:37:37.426Z,0.93
2017-09-01T04:40:05.151Z,1.00
2017-09-01T04:42:33.477Z,1.10
2017-09-01T04:45:00.970Z,1.20
2017-09-01T04:47:28.504Z,1.00
2017-09-01T04:49:56.021Z,1.20
2017-09-01T04:52:23.609Z,1.80
2017-09-01T04:54:51.098Z,2.10
2017-09-01T04:57:18.622Z,2.53
2017-09-01T04:59:46.158Z,2.43
2017-09-01T05:02:13.652Z,2.30
2017-09-01T05:04:41.161Z,2.70
2017-09-01T05:07:08.686Z,2.03
2017-09-01T05:09:36.227Z,2.00
2017-09-01T05:12:03.756Z,2.27
2017-09-01T05:14:31.283Z,2.03
2017-09-01T05:16:58.846Z,2.10
2017-09-01T05:19:26.413Z,2.23
2017-09-01T05:21:54.097Z,2.33
2017-09-01T05:24:21.616Z,2.30
2017-09-01T05:26:49.133Z,2.47
2017-09-01T05:29:16.665Z,2.23
2017-09-01T05:31:44.231Z,2.30
2017-09-01T05:34:11.783Z,2.80
2017-09-01T05:36:39.303Z,2.30
2017-09-01T05:39:06.806Z,2.43
2017-09-01T05:41:34.356Z,2.30
2017-09-01T05:44:01.866Z,2.53
2017-09-01T05:46:29.397Z,3.13
2017-09-01T05:48:56.913Z,2.77
2017-09-01T05:51:24.437Z,2.63
2017-09-01T05:53:51.978Z,2.60
2017-09-01T05:56:19.637Z,1.60
2017-09-01T05:58:47.190Z,2.87
2017-09-01T06:01:14.770Z,4.07
2017-09-01T06:03:42.326Z,4.70
2017-09-01T06:06:09.833Z,4.70
2017-09-01T06:08:37.342Z,4.40
2017-09-01T06:11:04.888Z,4.77
2017-09-01T06:13:32.411Z,4.97
2017-09-01T06:16:00.118Z,4.63
2017-09-01T06:18:27.624Z,3.50
2017-09-01T06:20:55.243Z,3.90
2017-09-01T06:23:22.820Z,3.90
2017-09-01T06:25:50.320Z,4.37
2017-09-01T06:28:17.825Z,4.73
2017-09-01T06:30:45.353Z,4.60
2017-09-01T06:33:12.894Z,4.60
2017-09-01T06:35:40.417Z,4.80
2017-09-01T06:38:07.926Z,4.57
2017-09-01T06:40:35.429Z,4.70
2017-09-01T06:43:02.936Z,3.43
2017-09-01T06:45:30.475Z,3.13
2017-09-01T06:47:57.978Z,4.43
2017-09-01T06:50:25.522Z,5.60
2017-09-01T06:52:53.082Z,4.53
2017-09-01T06:55:20.953Z,3.50
2017-09-01T06:57:49.115Z,7.83
2017-09-01T07:00:16.640Z,8.87
2017-09-01T07:02:44.142Z,8.83
2017-09-01T07:05:11.659Z,8.87
2017-09-01T07:07:39.229Z,9.97
2017-09-01T07:10:06.735Z,8.40
2017-09-01T07:12:34.239Z,8.57
2017-09-01T07:15:01.746Z,8.43
2017-09-01T07:17:29.250Z,7.60
2017-09-01T07:19:56.788Z,8.60
2017-09-01T07:22:24.371Z,7.90
2017-09-01T07:24:51.886Z,8.57
2017-09-01T07:27:19.398Z,8.13
2017-09-01T07:29:46.936Z,7.43
2017-09-01T07:32:14.455Z,8.00
2017-09-01T07:34:42.003Z,6.73
2017-09-01T07:37:09.801Z,7.63
2017-09-01T07:39:37.348Z,7.73
2017-09-01T07:42:04.871Z,7.87
2017-09-01T07:44:32.413Z,7.53
2017-09-01T07:46:59.909Z,7.73
2017-09-01T07:49:27.449Z,6.93
2017-09-01T07:51:54.998Z,6.10
2017-09-01T07:54:22.510Z,6.50
2017-09-01T07:56:50.058Z,6.03
2017-09-01T07:59:17.585Z,6.07
2017-09-01T08:01:45.118Z,6.27
2017-09-01T08:04:25.087Z,6.37
2017-09-01T08:06:52.640Z,4.90
2017-09-01T08:09:20.161Z,5.00
2017-09-01T08:11:47.680Z,5.40
2017-09-01T08:14:15.212Z,4.50
2017-09-01T08:16:42.746Z,6.03
2017-09-01T08:19:10.245Z,5.80
2017-09-01T08:21:38.008Z,5.90
2017-09-01T08:24:05.529Z,5.35
2017-09-01T08:26:33.037Z,4.20
2017-09-01T08:29:00.587Z,4.83
2017-09-01T08:31:28.159Z,6.23
2017-09-01T08:33:55.704Z,5.17
2017-09-01T08:36:23.406Z,4.40
2017-09-01T08:38:51.099Z,3.50
2017-09-01T08:41:18.604Z,4.17
2017-09-01T08:43:46.117Z,3.80
2017-09-01T08:46:13.630Z,3.43
2017-09-01T08:48:41.187Z,3.10
2017-09-01T08:51:08.697Z,3.70
2017-09-01T08:53:36.209Z,3.43
2017-09-01T08:56:03.754Z,4.13
2017-09-01T08:58:31.298Z,4.70
2017-09-01T09:00:58.806Z,4.40
2017-09-01T09:03:26.330Z,4.07
2017-09-01T09:05:53.868Z,3.40
2017-09-01T09:08:21.398Z,2.10
2017-09-01T09:10:48.986Z,3.00
2017-09-01T09:13:16.496Z,2.30
2017-09-01T09:15:44.004Z,2.23
2017-09-01T09:18:11.511Z,1.90
2017-09-01T09:20:39.047Z,1.97
2017-09-01T09:23:06.582Z,2.07
2017-09-01T09:25:34.144Z,2.10
2017-09-01T09:28:01.682Z,2.50
2017-09-01T09:30:29.185Z,2.33
2017-09-01T09:32:56.750Z,2.70
2017-09-01T09:35:24.243Z,2.10
2017-09-01T09:37:51.763Z,2.37
2017-09-01T09:40:19.451Z,2.50
2017-09-01T09:42:46.977Z,2.63
2017-09-01T09:45:14.517Z,2.20
2017-09-01T09:47:42.102Z,2.50
2017-09-01T09:50:09.610Z,2.03
2017-09-01T09:52:37.139Z,2.60
2017-09-01T09:55:04.670Z,2.43
2017-09-01T09:57:32.191Z,1.80
2017-09-01T09:59:59.691Z,2.30
2017-09-01T10:02:27.222Z,2.37
2017-09-01T10:04:54.733Z,1.70
2017-09-01T10:07:22.279Z,2.03
2017-09-01T10:09:49.823Z,2.30
2017-09-01T10:12:17.328Z,2.30
2017-09-01T10:14:44.838Z,2.07
2017-09-01T10:17:12.358Z,2.53
2017-09-01T10:19:39.901Z,2.10
2017-09-01T10:22:07.406Z,2.03
2017-09-01T10:24:34.950Z,2.13
2017-09-01T10:27:02.466Z,2.00
2017-09-01T10:29:29.974Z,2.20
2017-09-01T10:31:57.519Z,2.43
2017-09-01T10:34:25.029Z,1.60
2017-09-01T10:36:52.584Z,1.77
2017-09-01T10:39:20.094Z,1.90
2017-09-01T10:41:48.266Z,1.80
2017-09-01T10:44:15.761Z,2.03
2017-09-01T10:46:44.066Z,2.50
2017-09-01T10:49:19.597Z,2.60
2017-09-01T10:51:58.805Z,1.87
2017-09-01T10:54:38.263Z,2.23
2017-09-01T11:00:04.546Z,2.40
2017-09-01T11:02:32.067Z,2.10
2017-09-01T11:04:59.574Z,2.47
2017-09-01T11:07:27.112Z,2.30
2017-09-01T11:09:54.676Z,2.07
2017-09-01T11:12:22.216Z,2.37
2017-09-01T11:14:49.739Z,2.13
2017-09-01T11:17:17.248Z,2.10
2017-09-01T11:19:50.509Z,2.00
2017-09-01T11:22:23.724Z,2.63
2017-09-01T11:24:51.316Z,2.10
2017-09-01T11:27:18.826Z,2.23
2017-09-01T11:29:46.343Z,2.30
2017-09-01T11:32:13.873Z,1.87
2017-09-01T11:34:41.413Z,2.57
2017-09-01T11:37:09.015Z,2.13
2017-09-01T11:39:36.510Z,2.90
2017-09-01T11:42:04.166Z,2.43
2017-09-01T11:44:31.714Z,2.70
2017-09-01T11:46:59.256Z,3.23
2017-09-01T11:49:26.785Z,3.47
2017-09-01T11:51:54.316Z,2.90
2017-09-01T11:54:21.834Z,3.17
2017-09-01T11:56:49.398Z,2.97
2017-09-01T11:59:16.895Z,3.37
2017-09-01T12:01:44.454Z,2.97
2017-09-01T12:04:11.970Z,2.67
2017-09-01T12:06:39.582Z,3.20
2017-09-01T12:09:07.142Z,3.80
2017-09-01T12:11:34.653Z,4.70
2017-09-01T12:14:02.204Z,4.30
2017-09-01T12:16:29.746Z,4.30
2017-09-01T12:18:57.293Z,3.70
2017-09-01T12:21:24.818Z,3.20
2017-09-01T12:23:52.348Z,3.10
2017-09-01T12:26:19.872Z,2.60
2017-09-01T12:28:47.415Z,2.60
2017-09-01T12:31:14.966Z,2.57
2017-09-01T12:33:42.499Z,2.00
2017-09-01T12:36:10.009Z,2.67
2017-09-01T12:38:37.560Z,2.10
2017-09-01T12:41:05.121Z,2.10
2017-09-01T12:43:32.631Z,2.07
2017-09-01T12:46:00.196Z,2.60
2017-09-01T12:48:27.713Z,2.43
2017-09-01T12:50:55.267Z,2.60
2017-09-01T12:53:22.786Z,2.00
2017-09-01T12:55:50.356Z,2.70
2017-09-01T12:58:18.182Z,2.23
2017-09-01T13:00:45.885Z,2.23
2017-09-01T13:03:13.412Z,2.60
2017-09-01T13:05:41.046Z,2.50
2017-09-01T13:08:08.640Z,2.70
2017-09-01T13:10:36.226Z,2.33
2017-09-01T13:13:03.976Z,1.80
2017-09-01T13:15:31.493Z,2.00
2017-09-01T13:17:59.016Z,2.53
2017-09-01T13:20:26.526Z,1.90
2017-09-01T13:22:54.098Z,2.33
2017-09-01T13:25:21.746Z,2.30
2017-09-01T13:27:49.268Z,2.10
2017-09-01T13:30:16.952Z,2.30
2017-09-01T13:32:44.468Z,1.93
2017-09-01T13:35:12.107Z,2.30
2017-09-01T13:37:39.638Z,2.60
2017-09-01T13:40:07.155Z,2.80
2017-09-01T13:42:34.675Z,2.63
2017-09-01T13:45:02.191Z,2.83
2017-09-01T13:47:29.712Z,2.50
2017-09-01T13:49:57.432Z,2.27
2017-09-01T13:52:24.967Z,2.53
2017-09-01T13:54:52.490Z,2.60
2017-09-01T13:57:19.993Z,2.47
2017-09-01T13:59:47.531Z,2.80
2017-09-01T14:02:15.061Z,2.30
2017-09-01T14:04:42.602Z,2.40
2017-09-01T14:07:10.078Z,2.23
2017-09-01T14:09:37.594Z,2.00
2017-09-01T14:12:05.126Z,2.67
2017-09-01T14:14:32.647Z,2.23
2017-09-01T14:17:00.139Z,2.80
2017-09-01T14:19:27.656Z,1.90
2017-09-01T14:21:55.200Z,2.53
2017-09-01T14:24:22.745Z,1.83
2017-09-01T14:26:50.287Z,2.40
2017-09-01T14:29:17.827Z,2.23
2017-09-01T14:31:45.450Z,1.93
2017-09-01T14:34:12.974Z,3.03
2017-09-01T14:36:40.585Z,2.60
2017-09-01T14:39:08.093Z,2.50
2017-09-01T14:41:35.596Z,2.00
2017-09-01T14:44:03.120Z,2.33
2017-09-01T14:46:31.074Z,2.10
2017-09-01T14:48:58.621Z,1.87
2017-09-01T14:51:26.275Z,2.00
2017-09-01T14:53:54.457Z,2.23
2017-09-01T14:56:22.309Z,2.20
2017-09-01T14:58:49.843Z,2.60
2017-09-01T15:01:17.458Z,2.20
2017-09-01T15:03:45.017Z,2.00
2017-09-01T15:06:12.551Z,2.00
2017-09-01T15:08:40.155Z,2.17
2017-09-01T15:11:07.825Z,1.90
2017-09-01T15:13:35.367Z,2.03
2017-09-01T15:16:02.907Z,2.50
2017-09-01T15:18:30.446Z,2.47
2017-09-01T15:20:57.967Z,2.03
2017-09-01T15:23:25.477Z,1.90
2017-09-01T15:25:53.065Z,2.03
2017-09-01T15:28:20.574Z,2.20
2017-09-01T15:30:48.093Z,2.07
2017-09-01T15:33:15.582Z,2.90
2017-09-01T15:35:43.115Z,2.60
2017-09-01T15:38:10.618Z,2.40
2017-09-01T15:40:38.117Z,2.43
2017-09-01T15:43:05.663Z,2.23
2017-09-01T15:45:33.161Z,2.77
2017-09-01T15:48:00.669Z,2.03
2017-09-01T15:50:28.322Z,2.50
2017-09-01T15:52:55.844Z,2.43
2017-09-01T15:55:23.374Z,2.23
2017-09-01T15:57:50.911Z,2.60
2017-09-01T16:00:18.443Z,2.27
2017-09-01T16:02:46.001Z,2.37
2017-09-01T16:05:13.519Z,2.43
2017-09-01T16:07:41.018Z,2.03
2017-09-01T16:10:08.550Z,2.27
2017-09-01T16:12:36.041Z,2.60
2017-09-01T16:15:03.578Z,2.70
2017-09-01T16:17:31.189Z,2.40
2017-09-01T16:19:59.474Z,2.23
2017-09-01T16:22:26.996Z,1.80
2017-09-01T16:24:54.521Z,2.10
2017-09-01T16:27:22.041Z,2.27
2017-09-01T16:29:49.559Z,2.13
2017-09-01T16:32:17.071Z,2.20
2017-09-01T16:34:45.383Z,2.10
2017-09-01T16:37:12.907Z,2.67
2017-09-01T16:39:40.414Z,1.90
2017-09-01T16:42:08.011Z,2.37
2017-09-01T16:44:35.487Z,2.40
2017-09-01T16:47:03.026Z,2.43
2017-09-01T16:49:30.533Z,2.20
2017-09-01T16:51:58.067Z,2.40
2017-09-01T16:54:25.652Z,1.93
2017-09-01T16:56:53.150Z,2.23
2017-09-01T16:59:20.691Z,2.37
2017-09-01T17:01:48.190Z,2.10
2017-09-01T17:04:15.694Z,2.30
2017-09-01T17:06:43.219Z,3.00
2017-09-01T17:09:11.469Z,2.57
2017-09-01T17:11:38.984Z,2.13
2017-09-01T17:14:06.496Z,2.17
2017-09-01T17:16:34.021Z,2.33
2017-09-01T17:19:01.620Z,2.73
2017-09-01T17:21:29.169Z,2.17
2017-09-01T17:23:56.646Z,1.90
2017-09-01T17:26:24.186Z,2.03
2017-09-01T17:28:51.704Z,2.00
2017-09-01T17:31:19.250Z,2.00
2017-09-01T17:33:46.785Z,2.17
2017-09-01T17:36:14.438Z,1.93
2017-09-01T17:38:44.881Z,2.40
2017-09-01T17:41:12.414Z,2.10
2017-09-01T17:43:39.929Z,2.40
2017-09-01T17:46:07.434Z,2.37
2017-09-01T17:48:34.925Z,1.67
2017-09-01T17:51:03.260Z,2.20
2017-09-01T17:53:30.794Z,2.00
2017-09-01T17:55:58.346Z,2.00
2017-09-01T17:58:25.831Z,2.00
2017-09-01T18:03:48.839Z,2.57
2017-09-01T18:06:16.750Z,2.60
2017-09-01T18:08:44.732Z,2.42
2017-09-01T18:11:12.282Z,3.10
2017-09-01T18:13:39.829Z,2.70
2017-09-01T18:16:07.384Z,2.90
2017-09-01T18:18:34.945Z,2.70
2017-09-01T18:21:02.474Z,2.90
2017-09-01T18:23:30.156Z,2.90
2017-09-01T18:25:58.163Z,2.83
2017-09-01T18:28:25.691Z,2.40
2017-09-01T18:30:53.277Z,3.20
2017-09-01T18:33:20.764Z,2.90
2017-09-01T18:35:48.389Z,3.00
2017-09-01T18:38:16.110Z,3.13
2017-09-01T18:40:43.682Z,3.03
2017-09-01T18:43:11.185Z,2.90
2017-09-01T18:45:38.790Z,2.60
2017-09-01T18:48:06.296Z,2.70
2017-09-01T18:50:33.833Z,2.90
2017-09-01T18:53:01.445Z,2.90
2017-09-01T18:55:28.982Z,3.20
2017-09-01T18:57:56.521Z,3.00
2017-09-01T19:00:24.205Z,3.00
2017-09-01T19:02:51.723Z,3.57
2017-09-01T19:05:19.271Z,3.60
2017-09-01T19:07:46.799Z,3.20
2017-09-01T19:10:14.432Z,2.97
2017-09-01T19:12:42.254Z,3.10
2017-09-01T19:15:10.681Z,3.50
2017-09-01T19:17:38.180Z,3.20
2017-09-01T19:20:05.724Z,2.77
2017-09-01T19:22:33.277Z,3.53
2017-09-01T19:25:00.840Z,3.17
2017-09-01T19:27:28.363Z,4.00
2017-09-01T19:29:55.887Z,3.20
2017-09-01T19:32:23.416Z,3.63
2017-09-01T19:34:51.075Z,3.40
2017-09-01T19:37:18.603Z,3.30
2017-09-01T19:39:46.141Z,3.90
2017-09-01T19:42:13.672Z,3.60
2017-09-01T19:44:41.223Z,2.83
2017-09-01T19:47:08.760Z,3.83
2017-09-01T19:49:36.253Z,3.60
2017-09-01T19:52:03.834Z,3.60
2017-09-01T19:54:31.399Z,3.43
2017-09-01T19:56:58.978Z,3.27
2017-09-01T19:59:26.552Z,3.30
2017-09-01T20:01:54.077Z,3.30
2017-09-01T20:04:21.653Z,3.27
2017-09-01T20:06:49.178Z,3.10
2017-09-01T20:09:16.711Z,3.50
2017-09-01T20:11:44.233Z,3.30
2017-09-01T20:14:11.743Z,3.80
2017-09-01T20:16:39.351Z,3.00
2017-09-01T20:19:06.865Z,3.10
2017-09-01T20:21:34.399Z,3.03
2017-09-01T20:24:01.928Z,2.90
2017-09-01T20:26:30.395Z,3.40
2017-09-01T20:29:01.410Z,2.60
2017-09-01T20:31:53.376Z,2.67
2017-09-01T20:34:46.144Z,3.20
2017-09-01T20:37:33.978Z,2.93
2017-09-01T20:40:07.588Z,3.13
2017-09-01T20:42:38.312Z,2.67
2017-09-01T20:45:21.642Z,2.87
2017-09-01T20:48:03.388Z,2.67
2017-09-01T20:50:53.680Z,2.60
2017-09-01T20:54:01.768Z,2.67
2017-09-01T20:56:32.052Z,2.77
2017-09-01T20:59:13.077Z,3.13
2017-09-01T21:01:50.414Z,2.80
2017-09-01T21:04:25.654Z,2.60
2017-09-01T21:07:20.183Z,2.30
2017-09-01T21:10:12.824Z,2.60
2017-09-01T21:12:55.922Z,2.37
2017-09-01T21:15:51.464Z,2.60
2017-09-01T21:18:22.096Z,2.27
2017-09-01T21:21:03.007Z,2.23
2017-09-01T21:23:44.058Z,2.77
2017-09-01T21:26:33.621Z,2.73
2017-09-01T21:29:13.164Z,2.50
2017-09-01T21:31:55.772Z,2.50
2017-09-01T21:34:38.093Z,2.50
2017-09-01T21:37:23.212Z,2.27
2017-09-01T21:40:19.192Z,2.30
2017-09-01T21:43:08.651Z,2.67
2017-09-01T21:45:48.719Z,2.43
2017-09-01T21:48:33.043Z,2.47
2017-09-01T21:51:16.744Z,2.03
2017-09-01T21:54:07.957Z,2.17
2017-09-01T21:56:47.742Z,2.50
2017-09-01T21:59:17.655Z,2.30
2017-09-01T22:01:49.070Z,2.60
2017-09-01T22:04:21.470Z,2.33
2017-09-01T22:06:54.399Z,2.40
2017-09-01T22:09:36.504Z,2.00
2017-09-01T22:12:05.065Z,2.30
2017-09-01T22:14:36.748Z,2.63
2017-09-01T22:17:08.031Z,2.13
2017-09-01T22:19:38.519Z,2.10
2017-09-01T22:22:22.730Z,2.03
2017-09-01T22:25:03.762Z,2.20
2017-09-01T22:27:33.291Z,2.00
2017-09-01T22:30:04.378Z,2.10
2017-09-01T22:32:44.181Z,1.93
2017-09-01T22:35:14.877Z,2.03
2017-09-01T22:37:45.141Z,2.53
2017-09-01T22:40:38.805Z,2.43
2017-09-01T22:43:08.455Z,2.40
2017-09-01T22:45:49.510Z,2.30
2017-09-01T22:48:32.880Z,2.00
2017-09-01T22:51:04.134Z,2.30
2017-09-01T22:53:35.154Z,2.13
2017-09-01T22:56:18.901Z,2.10
2017-09-01T22:58:48.085Z,2.17
2017-09-01T23:01:17.117Z,1.93
2017-09-01T23:03:58.876Z,2.00
2017-09-01T23:06:49.772Z,1.93
2017-09-01T23:12:16.429Z,1.97
2017-09-01T23:14:47.565Z,1.80
2017-09-01T23:17:20.399Z,1.97
2017-09-01T23:19:57.091Z,1.90
2017-09-01T23:22:38.236Z,1.40
2017-09-01T23:25:15.331Z,2.00
2017-09-01T23:27:51.981Z,1.93
2017-09-01T23:30:23.786Z,1.83
2017-09-01T23:32:53.475Z,1.73
2017-09-01T23:35:29.328Z,2.13
2017-09-01T23:38:03.794Z,1.50
2017-09-01T23:40:33.164Z,1.97
2017-09-01T23:43:07.106Z,2.10
2017-09-01T23:45:50.701Z,1.97
2017-09-01T23:48:20.610Z,1.80
2017-09-01T23:50:52.780Z,1.80
2017-09-01T23:53:29.466Z,2.40
2017-09-01T23:56:10.046Z,1.87
2017-09-01T23:58:40.779Z,1.90
